sensor_id;sensor_type;location;lat;lon;timestamp;pressure;altitude;pressure_sealevel;temperature;humidity
68656;BME280;55638;51.122;13.606;2024-03-22T00:00:18;100739.66;;;8.47;52.16
68656;BME280;55638;51.122;13.606;2024-03-22T00:01:49;100739.75;;;8.45;52.37
68656;BME280;55638;51.122;13.606;2024-03-22T00:03:20;100744.38;;;8.43;52.38
68656;BME280;55638;51.122;13.606;2024-03-22T00:04:51;100739.97;;;8.42;52.79
68656;BME280;55638;51.122;13.606;2024-03-22T00:06:22;100744.38;;;8.43;52.03
68656;BME280;55638;51.122;13.606;2024-03-22T00:07:53;100747.91;;;8.44;52.61
68656;BME280;55638;51.122;13.606;2024-03-22T00:09:24;100747.91;;;8.44;52.18
68656;BME280;55638;51.122;13.606;2024-03-22T00:10:54;100742.66;;;8.42;52.23
68656;BME280;55638;51.122;13.606;2024-03-22T00:12:25;100734.69;;;8.41;52.37
68656;BME280;55638;51.122;13.606;2024-03-22T00:13:56;100741.88;;;8.40;52.40
68656;BME280;55638;51.122;13.606;2024-03-22T00:15:27;100741.13;;;8.38;52.36
68656;BME280;55638;51.122;13.606;2024-03-22T00:16:58;100742.09;;;8.37;52.36
68656;BME280;55638;51.122;13.606;2024-03-22T00:18:28;100738.53;;;8.37;52.38
68656;BME280;55638;51.122;13.606;2024-03-22T00:20:00;100743.91;;;8.37;52.47
68656;BME280;55638;51.122;13.606;2024-03-22T00:21:31;100734.09;;;8.36;52.53
68656;BME280;55638;51.122;13.606;2024-03-22T00:23:01;100735.94;;;8.35;52.52
68656;BME280;55638;51.122;13.606;2024-03-22T00:24:32;100730.56;;;8.35;52.51
68656;BME280;55638;51.122;13.606;2024-03-22T00:26:03;100727.88;;;8.35;52.58
68656;BME280;55638;51.122;13.606;2024-03-22T00:27:34;100727.03;;;8.35;52.45
68656;BME280;55638;51.122;13.606;2024-03-22T00:29:04;100730.56;;;8.35;52.59
68656;BME280;55638;51.122;13.606;2024-03-22T00:30:35;100727.03;;;8.35;52.41
68656;BME280;55638;51.122;13.606;2024-03-22T00:32:06;100718.09;;;8.34;52.48
68656;BME280;55638;51.122;13.606;2024-03-22T00:33:38;100724.34;;;8.35;52.44
68656;BME280;55638;51.122;13.606;2024-03-22T00:35:08;100718.97;;;8.35;52.44
68656;BME280;55638;51.122;13.606;2024-03-22T00:36:39;100715.41;;;8.34;52.39
68656;BME280;55638;51.122;13.606;2024-03-22T00:38:10;100712.72;;;8.34;52.62
68656;BME280;55638;51.122;13.606;2024-03-22T00:39:40;100713.72;;;8.33;52.64
68656;BME280;55638;51.122;13.606;2024-03-22T00:41:11;100710.06;;;8.34;52.52
68656;BME280;55638;51.122;13.606;2024-03-22T00:42:42;100714.56;;;8.33;52.47
68656;BME280;55638;51.122;13.606;2024-03-22T00:44:12;100707.47;;;8.32;52.41
68656;BME280;55638;51.122;13.606;2024-03-22T00:45:43;100708.34;;;8.33;52.65
68656;BME280;55638;51.122;13.606;2024-03-22T00:47:14;100710.16;;;8.32;52.42
68656;BME280;55638;51.122;13.606;2024-03-22T00:48:45;100709.28;;;8.32;52.50
68656;BME280;55638;51.122;13.606;2024-03-22T00:50:15;100703.91;;;8.32;52.65
68656;BME280;55638;51.122;13.606;2024-03-22T00:51:46;100706.59;;;8.32;52.54
68656;BME280;55638;51.122;13.606;2024-03-22T00:53:17;100704.03;;;8.30;52.57
68656;BME280;55638;51.122;13.606;2024-03-22T00:54:48;100700.47;;;8.30;52.65
68656;BME280;55638;51.122;13.606;2024-03-22T00:56:20;100712.06;;;8.30;52.62
68656;BME280;55638;51.122;13.606;2024-03-22T00:57:51;100705.84;;;8.30;52.61
68656;BME280;55638;51.122;13.606;2024-03-22T00:59:22;100705.84;;;8.30;52.54
68656;BME280;55638;51.122;13.606;2024-03-22T01:00:53;100709.47;;;8.29;52.62
68656;BME280;55638;51.122;13.606;2024-03-22T01:02:23;100703.25;;;8.28;52.43
68656;BME280;55638;51.122;13.606;2024-03-22T01:03:54;100697.13;;;8.26;52.40
68656;BME280;55638;51.122;13.606;2024-03-22T01:05:25;100702.38;;;8.28;52.51
68656;BME280;55638;51.122;13.606;2024-03-22T01:06:56;100695.41;;;8.25;52.75
68656;BME280;55638;51.122;13.606;2024-03-22T01:08:27;100698.00;;;8.27;52.40
68656;BME280;55638;51.122;13.606;2024-03-22T01:09:58;100696.03;;;8.29;52.14
68656;BME280;55638;51.122;13.606;2024-03-22T01:11:29;100694.53;;;8.25;52.38
68656;BME280;55638;51.122;13.606;2024-03-22T01:13:00;100687.41;;;8.24;52.23
68656;BME280;55638;51.122;13.606;2024-03-22T01:14:31;100683.97;;;8.22;52.55
68656;BME280;55638;51.122;13.606;2024-03-22T01:16:02;100685.91;;;8.20;52.33
68656;BME280;55638;51.122;13.606;2024-03-22T01:17:33;100678.91;;;8.17;52.15
68656;BME280;55638;51.122;13.606;2024-03-22T01:19:04;100675.34;;;8.17;52.41
68656;BME280;55638;51.122;13.606;2024-03-22T01:20:35;100676.50;;;8.13;52.40
68656;BME280;55638;51.122;13.606;2024-03-22T01:22:05;100676.63;;;8.11;52.41
68656;BME280;55638;51.122;13.606;2024-03-22T01:23:36;100677.69;;;8.08;52.43
68656;BME280;55638;51.122;13.606;2024-03-22T01:25:07;100669.81;;;8.05;52.41
68656;BME280;55638;51.122;13.606;2024-03-22T01:26:38;100661.03;;;8.03;52.41
68656;BME280;55638;51.122;13.606;2024-03-22T01:28:08;100658.41;;;8.02;52.66
68656;BME280;55638;51.122;13.606;2024-03-22T01:29:39;100659.47;;;7.99;52.44
68656;BME280;55638;51.122;13.606;2024-03-22T01:31:10;100671.19;;;7.98;52.53
68656;BME280;55638;51.122;13.606;2024-03-22T01:32:41;100670.41;;;7.96;52.59
68656;BME280;55638;51.122;13.606;2024-03-22T01:34:12;100670.59;;;7.93;52.88
68656;BME280;55638;51.122;13.606;2024-03-22T01:35:42;100668.81;;;7.94;52.30
68656;BME280;55638;51.122;13.606;2024-03-22T01:37:13;100667.19;;;7.91;52.50
68656;BME280;55638;51.122;13.606;2024-03-22T01:38:44;100668.25;;;7.89;52.73
68656;BME280;55638;51.122;13.606;2024-03-22T01:40:14;100663.06;;;7.85;52.51
68656;BME280;55638;51.122;13.606;2024-03-22T01:41:45;100665.88;;;7.84;52.67
68656;BME280;55638;51.122;13.606;2024-03-22T01:43:16;100660.69;;;7.81;52.75
68656;BME280;55638;51.122;13.606;2024-03-22T01:44:49;100663.38;;;7.81;52.94
68656;BME280;55638;51.122;13.606;2024-03-22T01:46:20;100659.06;;;7.78;52.80
68656;BME280;55638;51.122;13.606;2024-03-22T01:47:54;100659.13;;;7.77;53.00
68656;BME280;55638;51.122;13.606;2024-03-22T01:49:25;100652.19;;;7.74;52.78
68656;BME280;55638;51.122;13.606;2024-03-22T01:50:56;100656.66;;;7.74;52.85
68656;BME280;55638;51.122;13.606;2024-03-22T01:52:27;100654.19;;;7.71;52.77
68656;BME280;55638;51.122;13.606;2024-03-22T01:53:59;100649.78;;;7.70;52.71
68656;BME280;55638;51.122;13.606;2024-03-22T01:55:31;100649.97;;;7.67;52.94
68656;BME280;55638;51.122;13.606;2024-03-22T01:57:02;100643.84;;;7.65;52.97
68656;BME280;55638;51.122;13.606;2024-03-22T01:58:33;100645.56;;;7.66;52.71
68656;BME280;55638;51.122;13.606;2024-03-22T02:00:04;100635.16;;;7.61;52.93
68656;BME280;55638;51.122;13.606;2024-03-22T02:01:44;100639.63;;;7.60;52.70
68656;BME280;55638;51.122;13.606;2024-03-22T02:03:15;100638.88;;;7.58;52.86
68656;BME280;55638;51.122;13.606;2024-03-22T02:04:45;100635.34;;;7.58;52.87
68656;BME280;55638;51.122;13.606;2024-03-22T02:06:16;100631.03;;;7.55;53.05
68656;BME280;55638;51.122;13.606;2024-03-22T02:07:47;100631.09;;;7.54;52.79
68656;BME280;55638;51.122;13.606;2024-03-22T02:09:18;100635.59;;;7.53;52.98
68656;BME280;55638;51.122;13.606;2024-03-22T02:10:51;100623.38;;;7.49;53.00
68656;BME280;55638;51.122;13.606;2024-03-22T02:12:23;100626.03;;;7.49;53.18
68656;BME280;55638;51.122;13.606;2024-03-22T02:13:53;100619.16;;;7.45;53.12
68656;BME280;55638;51.122;13.606;2024-03-22T02:15:24;100620.97;;;7.45;53.10
68656;BME280;55638;51.122;13.606;2024-03-22T02:16:55;100623.75;;;7.43;52.98
68656;BME280;55638;51.122;13.606;2024-03-22T02:18:26;100619.34;;;7.42;53.13
68656;BME280;55638;51.122;13.606;2024-03-22T02:19:57;100606.03;;;7.40;53.13
68656;BME280;55638;51.122;13.606;2024-03-22T02:21:27;100610.53;;;7.40;52.98
68656;BME280;55638;51.122;13.606;2024-03-22T02:22:58;100611.56;;;7.37;53.11
68656;BME280;55638;51.122;13.606;2024-03-22T02:24:29;100605.47;;;7.35;52.95
68656;BME280;55638;51.122;13.606;2024-03-22T02:26:00;100609.88;;;7.36;53.14
68656;BME280;55638;51.122;13.606;2024-03-22T02:27:31;100602.97;;;7.32;53.05
68656;BME280;55638;51.122;13.606;2024-03-22T02:29:02;100610.16;;;7.32;53.09
68656;BME280;55638;51.122;13.606;2024-03-22T02:30:32;100604.03;;;7.30;53.05
68656;BME280;55638;51.122;13.606;2024-03-22T02:32:03;100599.63;;;7.29;53.26
68656;BME280;55638;51.122;13.606;2024-03-22T02:33:35;100603.25;;;7.28;53.25
68656;BME280;55638;51.122;13.606;2024-03-22T02:35:05;100596.28;;;7.25;53.17
68656;BME280;55638;51.122;13.606;2024-03-22T02:36:36;100592.72;;;7.25;53.24
68656;BME280;55638;51.122;13.606;2024-03-22T02:38:07;100590.22;;;7.22;53.19
68656;BME280;55638;51.122;13.606;2024-03-22T02:39:38;100596.56;;;7.21;53.19
68656;BME280;55638;51.122;13.606;2024-03-22T02:41:08;100594.00;;;7.19;53.30
68656;BME280;55638;51.122;13.606;2024-03-22T02:42:39;100596.75;;;7.18;53.26
68656;BME280;55638;51.122;13.606;2024-03-22T02:44:10;100589.69;;;7.16;53.31
68656;BME280;55638;51.122;13.606;2024-03-22T02:45:40;100592.44;;;7.15;53.17
68656;BME280;55638;51.122;13.606;2024-03-22T02:47:11;100585.38;;;7.14;53.34
68656;BME280;55638;51.122;13.606;2024-03-22T02:48:44;100583.72;;;7.11;53.19
68656;BME280;55638;51.122;13.606;2024-03-22T02:50:15;100581.06;;;7.11;53.28
68656;BME280;55638;51.122;13.606;2024-03-22T02:51:45;100588.34;;;7.09;53.26
68656;BME280;55638;51.122;13.606;2024-03-22T02:53:17;100580.50;;;7.06;53.21
68656;BME280;55638;51.122;13.606;2024-03-22T02:54:48;100574.34;;;7.04;53.29
68656;BME280;55638;51.122;13.606;2024-03-22T02:56:18;100583.38;;;7.03;53.35
68656;BME280;55638;51.122;13.606;2024-03-22T02:57:49;100582.59;;;7.01;53.36
68656;BME280;55638;51.122;13.606;2024-03-22T02:59:20;100580.09;;;6.98;53.39
68656;BME280;55638;51.122;13.606;2024-03-22T03:00:51;100577.53;;;6.97;53.33
68656;BME280;55638;51.122;13.606;2024-03-22T03:02:22;100572.25;;;6.95;53.31
68656;BME280;55638;51.122;13.606;2024-03-22T03:03:52;100571.50;;;6.93;53.47
68656;BME280;55638;51.122;13.606;2024-03-22T03:05:23;100575.13;;;6.92;53.42
68656;BME280;55638;51.122;13.606;2024-03-22T03:06:54;100569.88;;;6.90;53.69
68656;BME280;55638;51.122;13.606;2024-03-22T03:08:24;100569.00;;;6.90;53.76
68656;BME280;55638;51.122;13.606;2024-03-22T03:09:55;100574.44;;;6.88;53.83
68656;BME280;55638;51.122;13.606;2024-03-22T03:11:27;100576.28;;;6.88;53.74
68656;BME280;55638;51.122;13.606;2024-03-22T03:12:57;100575.50;;;6.86;53.79
68656;BME280;55638;51.122;13.606;2024-03-22T03:14:28;100571.09;;;6.85;53.86
68656;BME280;55638;51.122;13.606;2024-03-22T03:15:59;100572.03;;;6.84;53.96
68656;BME280;55638;51.122;13.606;2024-03-22T03:17:29;100573.84;;;6.83;53.85
68656;BME280;55638;51.122;13.606;2024-03-22T03:19:00;100573.84;;;6.83;53.98
68656;BME280;55638;51.122;13.606;2024-03-22T03:20:31;100572.03;;;6.84;54.05
68656;BME280;55638;51.122;13.606;2024-03-22T03:22:01;100565.91;;;6.82;54.06
68656;BME280;55638;51.122;13.606;2024-03-22T03:23:32;100563.22;;;6.82;54.01
68656;BME280;55638;51.122;13.606;2024-03-22T03:25:03;100563.22;;;6.82;54.11
68656;BME280;55638;51.122;13.606;2024-03-22T03:26:34;100557.00;;;6.81;54.15
68656;BME280;55638;51.122;13.606;2024-03-22T03:28:05;100559.69;;;6.81;54.16
68656;BME280;55638;51.122;13.606;2024-03-22T03:29:38;100553.47;;;6.81;54.14
68656;BME280;55638;51.122;13.606;2024-03-22T03:31:08;100557.00;;;6.81;54.09
68656;BME280;55638;51.122;13.606;2024-03-22T03:32:39;100551.63;;;6.81;54.17
68656;BME280;55638;51.122;13.606;2024-03-22T03:34:10;100541.78;;;6.82;54.23
68656;BME280;55638;51.122;13.606;2024-03-22T03:35:45;100549.81;;;6.82;54.60
68656;BME280;55638;51.122;13.606;2024-03-22T03:37:16;100542.63;;;6.82;54.29
68656;BME280;55638;51.122;13.606;2024-03-22T03:38:46;100541.78;;;6.82;54.36
68656;BME280;55638;51.122;13.606;2024-03-22T03:40:17;100539.09;;;6.82;54.26
68656;BME280;55638;51.122;13.606;2024-03-22T03:41:48;100537.19;;;6.84;54.33
68656;BME280;55638;51.122;13.606;2024-03-22T03:43:19;100541.63;;;6.85;54.23
68656;BME280;55638;51.122;13.606;2024-03-22T03:44:49;100542.56;;;6.84;54.24
68656;BME280;55638;51.122;13.606;2024-03-22T03:46:20;100537.28;;;6.82;55.05
68656;BME280;55638;51.122;13.606;2024-03-22T03:47:51;100538.09;;;6.84;54.22
68656;BME280;55638;51.122;13.606;2024-03-22T03:49:22;100531.75;;;6.85;54.19
68656;BME280;55638;51.122;13.606;2024-03-22T03:50:53;100534.44;;;6.85;54.21
68656;BME280;55638;51.122;13.606;2024-03-22T03:52:25;100529.09;;;6.85;54.21
68656;BME280;55638;51.122;13.606;2024-03-22T03:53:55;100527.25;;;6.86;54.28
68656;BME280;55638;51.122;13.606;2024-03-22T03:55:26;100529.94;;;6.86;54.29
68656;BME280;55638;51.122;13.606;2024-03-22T03:56:57;100522.88;;;6.85;54.46
68656;BME280;55638;51.122;13.606;2024-03-22T03:58:28;100521.91;;;6.86;54.51
68656;BME280;55638;51.122;13.606;2024-03-22T03:59:58;100526.41;;;6.85;54.30
68656;BME280;55638;51.122;13.606;2024-03-22T04:01:29;100527.25;;;6.86;54.53
68656;BME280;55638;51.122;13.606;2024-03-22T04:02:59;100536.06;;;6.88;54.66
68656;BME280;55638;51.122;13.606;2024-03-22T04:04:30;100532.44;;;6.89;54.57
68656;BME280;55638;51.122;13.606;2024-03-22T04:06:01;100527.00;;;6.90;54.55
68656;BME280;55638;51.122;13.606;2024-03-22T04:07:32;100532.34;;;6.90;54.63
68656;BME280;55638;51.122;13.606;2024-03-22T04:09:03;100527.84;;;6.91;54.95
68656;BME280;55638;51.122;13.606;2024-03-22T04:10:33;100526.78;;;6.93;54.26
68656;BME280;55638;51.122;13.606;2024-03-22T04:12:05;100524.97;;;6.94;54.27
68656;BME280;55638;51.122;13.606;2024-03-22T04:13:35;100522.28;;;6.94;54.42
68656;BME280;55638;51.122;13.606;2024-03-22T04:15:06;100523.16;;;6.95;54.43
68656;BME280;55638;51.122;13.606;2024-03-22T04:16:38;100525.81;;;6.95;54.48
68656;BME280;55638;51.122;13.606;2024-03-22T04:18:09;100519.63;;;6.94;54.45
68656;BME280;55638;51.122;13.606;2024-03-22T04:19:39;100518.66;;;6.95;54.56
68656;BME280;55638;51.122;13.606;2024-03-22T04:21:10;100504.38;;;6.95;54.52
68656;BME280;55638;51.122;13.606;2024-03-22T04:22:40;100514.13;;;6.96;54.39
68656;BME280;55638;51.122;13.606;2024-03-22T04:24:11;100507.00;;;6.96;54.42
68656;BME280;55638;51.122;13.606;2024-03-22T04:25:54;100504.31;;;6.96;54.66
68656;BME280;55638;51.122;13.606;2024-03-22T04:27:25;100506.09;;;6.96;54.39
68656;BME280;55638;51.122;13.606;2024-03-22T04:28:55;100507.84;;;6.97;54.48
68656;BME280;55638;51.122;13.606;2024-03-22T04:30:26;100502.47;;;6.97;54.29
68656;BME280;55638;51.122;13.606;2024-03-22T04:31:57;100491.75;;;6.97;54.41
68656;BME280;55638;51.122;13.606;2024-03-22T04:33:29;100503.22;;;6.99;54.38
68656;BME280;55638;51.122;13.606;2024-03-22T04:35:00;100492.63;;;6.97;54.32
68656;BME280;55638;51.122;13.606;2024-03-22T04:36:31;100494.44;;;6.97;54.47
68656;BME280;55638;51.122;13.606;2024-03-22T04:38:02;100489.16;;;6.95;54.66
68656;BME280;55638;51.122;13.606;2024-03-22T04:39:33;100487.16;;;6.99;53.99
68656;BME280;55638;51.122;13.606;2024-03-22T04:41:04;100494.31;;;6.98;53.78
68656;BME280;55638;51.122;13.606;2024-03-22T04:42:35;100489.94;;;6.97;54.17
68656;BME280;55638;51.122;13.606;2024-03-22T04:44:05;100486.47;;;6.95;54.24
68656;BME280;55638;51.122;13.606;2024-03-22T04:45:36;100483.06;;;6.93;54.07
68656;BME280;55638;51.122;13.606;2024-03-22T04:47:07;100486.69;;;6.92;54.15
68656;BME280;55638;51.122;13.606;2024-03-22T04:48:37;100482.28;;;6.91;54.02
68656;BME280;55638;51.122;13.606;2024-03-22T04:50:08;100484.19;;;6.89;54.12
68656;BME280;55638;51.122;13.606;2024-03-22T04:51:39;100479.91;;;6.86;54.14
68656;BME280;55638;51.122;13.606;2024-03-22T04:53:10;100480.00;;;6.85;54.29
68656;BME280;55638;51.122;13.606;2024-03-22T04:54:41;100480.06;;;6.83;54.06
68656;BME280;55638;51.122;13.606;2024-03-22T04:56:12;100476.63;;;6.81;54.01
68656;BME280;55638;51.122;13.606;2024-03-22T04:57:42;100483.88;;;6.79;54.15
68656;BME280;55638;51.122;13.606;2024-03-22T04:59:13;100481.31;;;6.78;54.14
68656;BME280;55638;51.122;13.606;2024-03-22T05:00:44;100477.97;;;6.74;54.16
68656;BME280;55638;51.122;13.606;2024-03-22T05:02:15;100476.22;;;6.73;54.16
68656;BME280;55638;51.122;13.606;2024-03-22T05:03:46;100482.56;;;6.72;54.09
68656;BME280;55638;51.122;13.606;2024-03-22T05:05:18;100480.06;;;6.69;54.13
68656;BME280;55638;51.122;13.606;2024-03-22T05:06:49;100468.59;;;6.67;54.36
68656;BME280;55638;51.122;13.606;2024-03-22T05:08:20;100474.03;;;6.65;54.28
68656;BME280;55638;51.122;13.606;2024-03-22T05:09:50;100479.41;;;6.65;54.23
68656;BME280;55638;51.122;13.606;2024-03-22T05:11:21;100475.09;;;6.63;54.20
68656;BME280;55638;51.122;13.606;2024-03-22T05:12:52;100469.72;;;6.63;54.39
68656;BME280;55638;51.122;13.606;2024-03-22T05:14:22;100470.69;;;6.62;54.51
68656;BME280;55638;51.122;13.606;2024-03-22T05:15:53;100471.53;;;6.62;54.58
68656;BME280;55638;51.122;13.606;2024-03-22T05:17:24;100466.31;;;6.61;54.80
68656;BME280;55638;51.122;13.606;2024-03-22T05:18:55;100464.47;;;6.61;54.92
68656;BME280;55638;51.122;13.606;2024-03-22T05:20:26;100461.69;;;6.63;54.75
68656;BME280;55638;51.122;13.606;2024-03-22T05:21:56;100451.88;;;6.63;54.94
68656;BME280;55638;51.122;13.606;2024-03-22T05:23:27;100452.72;;;6.64;55.02
68656;BME280;55638;51.122;13.606;2024-03-22T05:24:58;100450.91;;;6.64;55.05
68656;BME280;55638;51.122;13.606;2024-03-22T05:26:28;100448.03;;;6.67;55.09
68656;BME280;55638;51.122;13.606;2024-03-22T05:28:02;100453.28;;;6.69;55.20
68656;BME280;55638;51.122;13.606;2024-03-22T05:29:33;100453.06;;;6.72;55.39
68656;BME280;55638;51.122;13.606;2024-03-22T05:31:04;100452.03;;;6.75;55.52
68656;BME280;55638;51.122;13.606;2024-03-22T05:32:34;100450.00;;;6.78;55.62
68656;BME280;55638;51.122;13.606;2024-03-22T05:34:05;100450.50;;;6.85;55.11
68656;BME280;55638;51.122;13.606;2024-03-22T05:35:36;100445.94;;;6.87;55.15
68656;BME280;55638;51.122;13.606;2024-03-22T05:37:06;100440.38;;;6.90;55.50
68656;BME280;55638;51.122;13.606;2024-03-22T05:38:39;100439.22;;;6.94;55.43
68656;BME280;55638;51.122;13.606;2024-03-22T05:40:11;100429.16;;;6.98;55.43
68656;BME280;55638;51.122;13.606;2024-03-22T05:41:43;100439.56;;;7.02;55.25
68656;BME280;55638;51.122;13.606;2024-03-22T05:43:14;100433.06;;;7.06;55.36
68656;BME280;55638;51.122;13.606;2024-03-22T05:44:45;100441.66;;;7.11;55.13
68656;BME280;55638;51.122;13.606;2024-03-22T05:46:15;100436.84;;;7.16;55.20
68656;BME280;55638;51.122;13.606;2024-03-22T05:47:46;100433.97;;;7.20;55.06
68656;BME280;55638;51.122;13.606;2024-03-22T05:49:17;100439.03;;;7.24;55.14
68656;BME280;55638;51.122;13.606;2024-03-22T05:50:48;100440.44;;;7.30;54.84
68656;BME280;55638;51.122;13.606;2024-03-22T05:52:18;100434.69;;;7.36;54.98
68656;BME280;55638;51.122;13.606;2024-03-22T05:53:49;100432.66;;;7.39;54.94
68656;BME280;55638;51.122;13.606;2024-03-22T05:55:20;100431.41;;;7.45;54.91
68656;BME280;55638;51.122;13.606;2024-03-22T05:56:51;100437.31;;;7.50;54.91
68656;BME280;55638;51.122;13.606;2024-03-22T05:58:21;100451.28;;;7.55;54.68
68656;BME280;55638;51.122;13.606;2024-03-22T05:59:52;100437.53;;;7.60;54.71
68656;BME280;55638;51.122;13.606;2024-03-22T06:01:23;100435.44;;;7.65;54.78
68656;BME280;55638;51.122;13.606;2024-03-22T06:02:54;100426.19;;;7.69;54.55
68656;BME280;55638;51.122;13.606;2024-03-22T06:04:25;100430.28;;;7.75;54.42
68656;BME280;55638;51.122;13.606;2024-03-22T06:05:56;100427.28;;;7.79;54.51
68656;BME280;55638;51.122;13.606;2024-03-22T06:07:29;100422.56;;;7.83;54.29
68656;BME280;55638;51.122;13.606;2024-03-22T06:09:01;100424.97;;;7.88;54.23
68656;BME280;55638;51.122;13.606;2024-03-22T06:10:34;100430.84;;;7.93;54.10
68656;BME280;55638;51.122;13.606;2024-03-22T06:12:05;100419.81;;;7.97;54.18
68656;BME280;55638;51.122;13.606;2024-03-22T06:13:36;100416.78;;;8.02;54.07
68656;BME280;55638;51.122;13.606;2024-03-22T06:15:07;100422.81;;;8.05;54.01
68656;BME280;55638;51.122;13.606;2024-03-22T06:16:37;100410.78;;;8.11;54.07
68656;BME280;55638;51.122;13.606;2024-03-22T06:18:08;100425.72;;;8.15;53.90
68656;BME280;55638;51.122;13.606;2024-03-22T06:19:39;100414.66;;;8.20;54.00
68656;BME280;55638;51.122;13.606;2024-03-22T06:21:10;100415.22;;;8.25;54.15
68656;BME280;55638;51.122;13.606;2024-03-22T06:22:41;100406.75;;;8.31;54.00
68656;BME280;55638;51.122;13.606;2024-03-22T06:24:11;100404.59;;;8.36;53.98
68656;BME280;55638;51.122;13.606;2024-03-22T06:25:51;100410.19;;;8.46;53.64
68656;BME280;55638;51.122;13.606;2024-03-22T06:27:21;100412.31;;;8.53;53.96
68656;BME280;55638;51.122;13.606;2024-03-22T06:28:52;100413.56;;;8.61;53.75
68656;BME280;55638;51.122;13.606;2024-03-22T06:30:23;100412.06;;;8.69;54.00
68656;BME280;55638;51.122;13.606;2024-03-22T06:31:53;100405.19;;;8.78;53.64
68656;BME280;55638;51.122;13.606;2024-03-22T06:33:24;100408.91;;;8.88;53.51
68656;BME280;55638;51.122;13.606;2024-03-22T06:34:55;100407.34;;;8.97;53.36
68656;BME280;55638;51.122;13.606;2024-03-22T06:36:26;100403.13;;;9.06;53.34
68656;BME280;55638;51.122;13.606;2024-03-22T06:37:56;100401.59;;;9.14;53.34
68656;BME280;55638;51.122;13.606;2024-03-22T06:39:27;100399.09;;;9.24;53.17
68656;BME280;55638;51.122;13.606;2024-03-22T06:40:58;100390.44;;;9.32;53.12
68656;BME280;55638;51.122;13.606;2024-03-22T06:42:29;100378.22;;;9.39;52.85
68656;BME280;55638;51.122;13.606;2024-03-22T06:44:00;100378.53;;;9.47;52.70
68656;BME280;55638;51.122;13.606;2024-03-22T06:45:31;100379.66;;;9.56;52.73
68656;BME280;55638;51.122;13.606;2024-03-22T06:47:02;100371.88;;;9.64;52.74
68656;BME280;55638;51.122;13.606;2024-03-22T06:48:33;100369.44;;;9.72;52.14
68656;BME280;55638;51.122;13.606;2024-03-22T06:50:04;100370.72;;;9.79;52.32
68656;BME280;55638;51.122;13.606;2024-03-22T06:51:35;100366.56;;;9.86;51.98
68656;BME280;55638;51.122;13.606;2024-03-22T06:53:07;100369.50;;;9.94;51.85
68656;BME280;55638;51.122;13.606;2024-03-22T06:54:37;100370.75;;;10.02;51.66
68656;BME280;55638;51.122;13.606;2024-03-22T06:56:08;100363.16;;;10.07;51.69
68656;BME280;55638;51.122;13.606;2024-03-22T06:57:39;100372.44;;;10.14;51.52
68656;BME280;55638;51.122;13.606;2024-03-22T06:59:10;100364.75;;;10.20;51.33
68656;BME280;55638;51.122;13.606;2024-03-22T07:00:40;100369.78;;;10.25;51.15
68656;BME280;55638;51.122;13.606;2024-03-22T07:02:11;100367.72;;;10.29;50.83
68656;BME280;55638;51.122;13.606;2024-03-22T07:03:44;100372.47;;;10.36;51.05
68656;BME280;55638;51.122;13.606;2024-03-22T07:05:16;100371.28;;;10.40;50.85
68656;BME280;55638;51.122;13.606;2024-03-22T07:06:47;100364.66;;;10.45;50.76
68656;BME280;55638;51.122;13.606;2024-03-22T07:08:17;100367.09;;;10.48;50.47
68656;BME280;55638;51.122;13.606;2024-03-22T07:09:48;100362.19;;;10.53;50.71
68656;BME280;55638;51.122;13.606;2024-03-22T07:11:19;100365.38;;;10.58;50.63
68656;BME280;55638;51.122;13.606;2024-03-22T07:12:49;100362.28;;;10.62;50.67
68656;BME280;55638;51.122;13.606;2024-03-22T07:14:20;100362.88;;;10.66;50.56
68656;BME280;55638;51.122;13.606;2024-03-22T07:15:51;100357.19;;;10.71;50.47
68656;BME280;55638;51.122;13.606;2024-03-22T07:17:22;100350.44;;;10.76;50.52
68656;BME280;55638;51.122;13.606;2024-03-22T07:18:54;100360.69;;;10.82;50.48
68656;BME280;55638;51.122;13.606;2024-03-22T07:20:26;100359.22;;;10.89;50.00
68656;BME280;55638;51.122;13.606;2024-03-22T07:21:56;100354.53;;;10.92;49.62
68656;BME280;55638;51.122;13.606;2024-03-22T07:23:30;100355.88;;;10.97;49.69
68656;BME280;55638;51.122;13.606;2024-03-22T07:25:00;100358.34;;;11.00;49.62
68656;BME280;55638;51.122;13.606;2024-03-22T07:26:31;100358.19;;;11.02;49.68
68656;BME280;55638;51.122;13.606;2024-03-22T07:28:02;100361.53;;;11.05;49.54
68656;BME280;55638;51.122;13.606;2024-03-22T07:29:32;100369.31;;;11.08;49.49
68656;BME280;55638;51.122;13.606;2024-03-22T07:31:03;100364.56;;;11.12;49.48
68656;BME280;55638;51.122;13.606;2024-03-22T07:32:34;100361.56;;;11.15;49.47
68656;BME280;55638;51.122;13.606;2024-03-22T07:34:05;100367.59;;;11.19;49.46
68656;BME280;55638;51.122;13.606;2024-03-22T07:35:35;100369.16;;;11.21;49.35
68656;BME280;55638;51.122;13.606;2024-03-22T07:37:06;100366.22;;;11.24;49.47
68656;BME280;55638;51.122;13.606;2024-03-22T07:38:37;100365.00;;;11.28;49.58
68656;BME280;55638;51.122;13.606;2024-03-22T07:40:09;100353.06;;;11.31;49.68
68656;BME280;55638;51.122;13.606;2024-03-22T07:41:40;100348.25;;;11.34;49.41
68656;BME280;55638;51.122;13.606;2024-03-22T07:43:10;100349.75;;;11.39;49.57
68656;BME280;55638;51.122;13.606;2024-03-22T07:44:42;100344.78;;;11.44;49.40
68656;BME280;55638;51.122;13.606;2024-03-22T07:46:12;100338.88;;;11.50;49.47
68656;BME280;55638;51.122;13.606;2024-03-22T07:47:43;100341.06;;;11.56;49.32
68656;BME280;55638;51.122;13.606;2024-03-22T07:49:14;100336.13;;;11.61;49.10
68656;BME280;55638;51.122;13.606;2024-03-22T07:50:44;100338.41;;;11.66;49.34
68656;BME280;55638;51.122;13.606;2024-03-22T07:52:15;100333.34;;;11.72;49.28
68656;BME280;55638;51.122;13.606;2024-03-22T07:53:46;100335.56;;;11.78;49.30